Portada
METAR-TAF:

METAR-TAF

Aeroports :

Chicago Executive Airport

Wheeling-Prospect Heights, Illinois, Estats Units d'Amèrica

latitud: 42-07-15N, longitud: 087-54-17W, altitud: 197 m

Observació

L'informe es va fer fa 36 minuts, a les 12:52 UTC
Vent 5 kt del Est/Sud-Est
Temperatura 23°C
Humitat 69%
Pressió 1017 hPa
Visibilitat: 16.1 km
Cel clar

METAR: KPWK 191252Z 11005KT 10SM CLR 23/17 A3002 RMK AO2 SLP163 T02280167

Hora: 08:28 (13:28 UTC)


TAF: manca

Observacions i pronòstics meteorològics de més de 4000 aeroports (METAR i TAF).

Les estacions disponibles són els punts grocs i vermells al mapa.

Posi el ratolí al punt desitjat per veure el nom de l'estació.

Feu clic per veure les observacions i els pronòstics meteorològics.

Per canviar el mapa: feu clic els botons verds amb una creu de color negre per apropar; al botó verd amb un guió per allunyar la imatge; o en les fletxes verdes per a mapes adjacents.


METAR-TAF: